Time;durP1;ratioP1;P1;durP2;ratioP2;P2;SDS_P1;SDS_P2;PMS_P1;PMS_P2;Temp;Humidity;BMP_temperature;BMP_pressure;BME280_temperature;BME280_humidity;BME280_pressure;Samples;Min_cycle;Max_cycle;Signal;HPM_P1;HPM_P2
2023/04/04 00:01:03;;;;;;;10.05;1.80;;;;;;;;;;4950346;28;20035;-71
2023/04/04 00:03:31;;;;;;;9.68;2.00;;;;;;;;;;4941471;28;20037;-70
2023/04/04 00:06:00;;;;;;;7.57;1.90;;;;;;;;;;4949489;28;20033;-71
2023/04/04 00:08:28;;;;;;;6.93;1.80;;;;;;;;;;4960036;28;20374;-71
2023/04/04 00:11:00;;;;;;;10.02;1.77;;;;;;;;;;4958780;28;20022;-73
2023/04/04 00:13:27;;;;;;;7.28;1.42;;;;;;;;;;4961754;28;20034;-72
2023/04/04 00:15:55;;;;;;;9.45;1.85;;;;;;;;;;4951486;28;20065;-70
2023/04/04 00:18:22;;;;;;;7.78;1.77;;;;;;;;;;4952656;28;20073;-71
2023/04/04 00:20:50;;;;;;;8.63;1.90;;;;;;;;;;4953633;28;20615;-71
2023/04/04 00:23:17;;;;;;;9.20;1.80;;;;;;;;;;4958267;28;20038;-71
2023/04/04 00:25:50;;;;;;;6.18;1.30;;;;;;;;;;4955754;28;20123;-70
2023/04/04 00:28:23;;;;;;;11.10;1.95;;;;;;;;;;4959596;28;20034;-71
2023/04/04 00:30:51;;;;;;;6.30;1.40;;;;;;;;;;4956340;28;20134;-71
2023/04/04 00:33:18;;;;;;;10.65;1.60;;;;;;;;;;4956277;28;20053;-71
2023/04/04 00:35:50;;;;;;;7.45;1.67;;;;;;;;;;4948612;28;20031;-72
2023/04/04 00:38:17;;;;;;;8.48;1.55;;;;;;;;;;4944959;28;20359;-72
2023/04/04 00:40:50;;;;;;;8.05;1.25;;;;;;;;;;4954141;28;20181;-72
2023/04/04 00:43:19;;;;;;;7.55;1.52;;;;;;;;;;4927665;28;20128;-72
2023/04/04 00:45:48;;;;;;;7.70;1.50;;;;;;;;;;4936190;28;20037;-71
2023/04/04 00:48:16;;;;;;;9.20;1.48;;;;;;;;;;4958905;28;20295;-71
2023/04/04 00:50:44;;;;;;;8.40;1.52;;;;;;;;;;4952256;28;20453;-71
2023/04/04 00:53:12;;;;;;;8.07;1.63;;;;;;;;;;4953457;28;20416;-71
2023/04/04 00:55:39;;;;;;;6.25;1.50;;;;;;;;;;4955115;28;20097;-71
2023/04/04 00:58:07;;;;;;;5.95;1.40;;;;;;;;;;4957307;28;20192;-72
2023/04/04 01:00:35;;;;;;;7.38;1.70;;;;;;;;;;4939696;28;20050;-71
2023/04/04 01:03:04;;;;;;;8.57;1.40;;;;;;;;;;4955070;28;20042;-70
2023/04/04 01:05:32;;;;;;;6.80;1.55;;;;;;;;;;4955961;28;20636;-71
2023/04/04 01:08:01;;;;;;;6.15;1.27;;;;;;;;;;4954736;28;20492;-71
2023/04/04 01:10:30;;;;;;;7.13;1.63;;;;;;;;;;4941522;28;20474;-72
2023/04/04 01:12:57;;;;;;;6.43;1.08;;;;;;;;;;4953002;28;20035;-71
2023/04/04 01:15:25;;;;;;;6.00;1.27;;;;;;;;;;4955191;28;20429;-72
2023/04/04 01:17:55;;;;;;;6.30;1.40;;;;;;;;;;4949400;28;20354;-72
2023/04/04 01:20:25;;;;;;;6.13;1.50;;;;;;;;;;4941698;28;20058;-71
2023/04/04 01:22:53;;;;;;;7.05;1.73;;;;;;;;;;4954626;28;20093;-71
2023/04/04 01:25:26;;;;;;;6.75;1.67;;;;;;;;;;4939458;28;20594;-72
2023/04/04 01:27:55;;;;;;;6.70;1.70;;;;;;;;;;4955180;28;20065;-72
2023/04/04 01:30:22;;;;;;;6.05;1.55;;;;;;;;;;4953974;28;20019;-72
2023/04/04 01:32:57;;;;;;;7.10;2.10;;;;;;;;;;4938196;28;20035;-71
2023/04/04 01:35:37;;;;;;;7.85;2.00;;;;;;;;;;4939843;28;20050;-71
2023/04/04 01:38:15;;;;;;;8.35;1.55;;;;;;;;;;4951040;28;20472;-72
2023/04/04 01:40:47;;;;;;;6.22;1.27;;;;;;;;;;4951670;28;20027;-72
2023/04/04 01:43:15;;;;;;;5.22;1.38;;;;;;;;;;4951700;28;20219;-71
2023/04/04 01:45:42;;;;;;;8.43;1.70;;;;;;;;;;4956586;28;20034;-72
2023/04/04 01:48:10;;;;;;;7.53;1.50;;;;;;;;;;4957105;28;20085;-72
2023/04/04 01:50:36;;;;;;;6.85;1.30;;;;;;;;;;4956532;28;20041;-72
2023/04/04 01:53:03;;;;;;;;;;;;;;;;;;4948384;28;20754;-72
2023/04/04 01:55:32;;;;;;;8.05;1.50;;;;;;;;;;4957331;28;20375;-72
2023/04/04 01:58:00;;;;;;;6.65;1.35;;;;;;;;;;4951824;28;20037;-72
2023/04/04 02:00:28;;;;;;;7.95;1.40;;;;;;;;;;4944155;28;20065;-72
2023/04/04 02:02:56;;;;;;;4.68;1.33;;;;;;;;;;4951338;28;20117;-72
2023/04/04 02:05:22;;;;;;;7.95;1.40;;;;;;;;;;4955267;28;20230;-72
2023/04/04 02:07:51;;;;;;;5.63;1.25;;;;;;;;;;4952738;28;20107;-72
2023/04/04 02:10:19;;;;;;;4.75;1.15;;;;;;;;;;4956828;28;20495;-72
2023/04/04 02:12:46;;;;;;;5.43;1.40;;;;;;;;;;4936064;28;20122;-72
2023/04/04 02:15:14;;;;;;;10.43;1.35;;;;;;;;;;4941587;28;20875;-72
2023/04/04 02:17:46;;;;;;;7.00;1.48;;;;;;;;;;4957867;28;20027;-72
2023/04/04 02:20:17;;;;;;;6.07;1.20;;;;;;;;;;4955522;28;20375;-71
2023/04/04 02:22:53;;;;;;;6.70;1.08;;;;;;;;;;4952411;28;20038;-71
2023/04/04 02:25:23;;;;;;;6.60;1.20;;;;;;;;;;4962253;28;20042;-71
2023/04/04 02:27:59;;;;;;;4.40;1.00;;;;;;;;;;4959685;28;20034;-70
2023/04/04 02:30:27;;;;;;;5.40;1.10;;;;;;;;;;4959909;28;20134;-72
2023/04/04 02:33:07;;;;;;;5.25;1.02;;;;;;;;;;4958004;28;21086;-70
2023/04/04 02:35:36;;;;;;;6.05;1.48;;;;;;;;;;4942905;28;20031;-71
2023/04/04 02:38:04;;;;;;;7.50;1.20;;;;;;;;;;4960099;28;20814;-71
2023/04/04 02:40:33;;;;;;;4.13;1.23;;;;;;;;;;4955654;28;20102;-71
2023/04/04 02:43:00;;;;;;;7.82;1.40;;;;;;;;;;4955917;28;20039;-70
2023/04/04 02:45:28;;;;;;;6.07;1.30;;;;;;;;;;4958853;28;20137;-72
2023/04/04 02:47:55;;;;;;;4.35;1.10;;;;;;;;;;4942416;28;20046;-72
2023/04/04 02:50:23;;;;;;;4.50;0.98;;;;;;;;;;4941286;28;20084;-72
2023/04/04 02:52:53;;;;;;;7.47;1.35;;;;;;;;;;4952216;28;20023;-71
2023/04/04 02:55:22;;;;;;;6.80;1.38;;;;;;;;;;4962553;28;20042;-71
2023/04/04 02:57:53;;;;;;;6.15;1.20;;;;;;;;;;4945676;28;20546;-71
2023/04/04 03:00:20;;;;;;;5.65;1.02;;;;;;;;;;4943147;28;20049;-71
2023/04/04 03:02:54;;;;;;;3.55;0.90;;;;;;;;;;4957631;28;20564;-71
2023/04/04 03:05:23;;;;;;;5.28;1.20;;;;;;;;;;4960210;28;20145;-73
2023/04/04 03:07:55;;;;;;;2.67;0.82;;;;;;;;;;4954850;28;20583;-71
2023/04/04 03:10:26;;;;;;;5.10;0.98;;;;;;;;;;4928195;28;20553;-70
2023/04/04 03:12:56;;;;;;;4.15;0.90;;;;;;;;;;4956097;28;20038;-72
2023/04/04 03:15:22;;;;;;;5.00;0.95;;;;;;;;;;4945194;28;20046;-72
2023/04/04 03:17:50;;;;;;;4.45;1.05;;;;;;;;;;4940344;28;20069;-72
2023/04/04 03:20:19;;;;;;;5.38;1.17;;;;;;;;;;4945663;28;20460;-72
2023/04/04 03:22:46;;;;;;;4.38;1.15;;;;;;;;;;4922554;28;20085;-73
2023/04/04 03:25:15;;;;;;;5.28;0.90;;;;;;;;;;4923963;28;20397;-72
2023/04/04 03:27:44;;;;;;;3.92;0.85;;;;;;;;;;4943867;28;20073;-72
2023/04/04 03:30:12;;;;;;;2.83;0.80;;;;;;;;;;4922234;28;20502;-73
2023/04/04 03:32:40;;;;;;;4.05;0.90;;;;;;;;;;4924768;28;20118;-72
2023/04/04 03:35:09;;;;;;;4.93;1.20;;;;;;;;;;4937597;28;20118;-72
2023/04/04 03:37:38;;;;;;;5.57;1.10;;;;;;;;;;4941572;28;20248;-71
2023/04/04 03:40:06;;;;;;;5.93;1.38;;;;;;;;;;4938742;28;20049;-71
2023/04/04 03:42:35;;;;;;;5.32;1.10;;;;;;;;;;4942481;28;20034;-71
2023/04/04 03:45:02;;;;;;;3.38;1.13;;;;;;;;;;4939924;28;20058;-71
2023/04/04 03:47:31;;;;;;;5.18;1.20;;;;;;;;;;4927144;28;20111;-72
2023/04/04 03:50:00;;;;;;;4.50;1.20;;;;;;;;;;4938498;28;20354;-70
2023/04/04 03:52:28;;;;;;;5.63;1.40;;;;;;;;;;4942429;28;20105;-71
2023/04/04 03:54:55;;;;;;;3.15;0.80;;;;;;;;;;4923337;28;20035;-71
2023/04/04 03:57:23;;;;;;;5.10;1.13;;;;;;;;;;4942513;28;20066;-71
2023/04/04 03:59:51;;;;;;;3.88;1.00;;;;;;;;;;4947013;28;20066;-71
2023/04/04 04:02:19;;;;;;;5.55;1.10;;;;;;;;;;4961102;28;20036;-71
2023/04/04 04:04:46;;;;;;;4.25;1.20;;;;;;;;;;4954878;28;20146;-71
2023/04/04 04:07:15;;;;;;;4.32;1.13;;;;;;;;;;4955778;28;20592;-71
2023/04/04 04:09:43;;;;;;;5.20;1.10;;;;;;;;;;4958461;28;20145;-71
2023/04/04 04:12:12;;;;;;;4.68;0.90;;;;;;;;;;4943683;28;20027;-70
2023/04/04 04:14:39;;;;;;;3.92;0.88;;;;;;;;;;4960641;28;20058;-70
2023/04/04 04:17:06;;;;;;;3.88;1.00;;;;;;;;;;4955841;28;20546;-72
2023/04/04 04:19:35;;;;;;;5.85;1.05;;;;;;;;;;4958251;28;20041;-72
2023/04/04 04:22:02;;;;;;;4.35;0.90;;;;;;;;;;4929475;28;20046;-72
2023/04/04 04:24:30;;;;;;;5.72;1.25;;;;;;;;;;4947463;28;20035;-72
2023/04/04 04:26:57;;;;;;;4.25;0.93;;;;;;;;;;4954977;28;20588;-71
2023/04/04 04:29:26;;;;;;;5.65;1.05;;;;;;;;;;4940447;28;20404;-72
2023/04/04 04:31:54;;;;;;;6.28;1.10;;;;;;;;;;4952343;28;20726;-72
2023/04/04 04:34:24;;;;;;;5.63;1.20;;;;;;;;;;4955364;28;20464;-72
2023/04/04 04:36:52;;;;;;;4.28;1.02;;;;;;;;;;4950831;28;20092;-71
2023/04/04 04:39:20;;;;;;;4.75;1.20;;;;;;;;;;4956160;28;20377;-71
2023/04/04 04:41:49;;;;;;;4.25;1.17;;;;;;;;;;4953024;28;20473;-72
2023/04/04 04:44:17;;;;;;;4.05;1.00;;;;;;;;;;4958867;28;20077;-72
2023/04/04 04:46:44;;;;;;;4.85;1.00;;;;;;;;;;4935224;28;20376;-72
2023/04/04 04:49:12;;;;;;;4.22;1.00;;;;;;;;;;4955891;28;21013;-71
2023/04/04 04:51:39;;;;;;;4.18;1.00;;;;;;;;;;4955310;28;20058;-71
2023/04/04 04:54:06;;;;;;;5.43;0.98;;;;;;;;;;4953554;28;20032;-71
2023/04/04 04:56:35;;;;;;;5.97;1.38;;;;;;;;;;4960669;28;20144;-72
2023/04/04 04:59:02;;;;;;;7.43;1.50;;;;;;;;;;4958009;28;20806;-72
2023/04/04 05:01:31;;;;;;;6.55;1.52;;;;;;;;;;4944662;28;20049;-70
2023/04/04 05:03:58;;;;;;;6.25;1.55;;;;;;;;;;4956195;28;20088;-71
2023/04/04 05:06:28;;;;;;;5.97;1.50;;;;;;;;;;4958358;28;20026;-70
2023/04/04 05:08:55;;;;;;;5.03;1.33;;;;;;;;;;4950154;28;20040;-71
2023/04/04 05:11:25;;;;;;;6.63;1.10;;;;;;;;;;4956488;28;20093;-72
2023/04/04 05:13:52;;;;;;;5.13;1.00;;;;;;;;;;4926332;28;20721;-72
2023/04/04 05:16:19;;;;;;;5.05;1.10;;;;;;;;;;4954501;28;20101;-72
2023/04/04 05:18:46;;;;;;;6.10;1.02;;;;;;;;;;4935062;28;20482;-72
2023/04/04 05:21:15;;;;;;;6.75;1.10;;;;;;;;;;4956425;28;20237;-72
2023/04/04 05:23:45;;;;;;;6.10;1.13;;;;;;;;;;4955768;28;20049;-72
2023/04/04 05:26:12;;;;;;;5.05;1.00;;;;;;;;;;4956465;28;20037;-72
2023/04/04 05:28:41;;;;;;;4.78;1.10;;;;;;;;;;4953779;28;20030;-71
2023/04/04 05:31:08;;;;;;;4.45;1.10;;;;;;;;;;4952861;28;20035;-70
2023/04/04 05:33:37;;;;;;;5.45;1.30;;;;;;;;;;4954962;28;20041;-71
2023/04/04 05:36:03;;;;;;;5.78;1.00;;;;;;;;;;4939177;28;20653;-70
2023/04/04 05:38:32;;;;;;;5.65;1.30;;;;;;;;;;4955779;28;20058;-72
2023/04/04 05:41:00;;;;;;;8.55;1.30;;;;;;;;;;4961143;28;20121;-72
2023/04/04 05:43:28;;;;;;;4.93;1.20;;;;;;;;;;4941652;28;20077;-72
2023/04/04 05:45:56;;;;;;;3.58;0.88;;;;;;;;;;4950963;28;20100;-72
2023/04/04 05:48:23;;;;;;;8.73;1.60;;;;;;;;;;4952294;28;20054;-70
2023/04/04 05:50:52;;;;;;;5.25;1.20;;;;;;;;;;4956804;28;20030;-71
2023/04/04 05:53:21;;;;;;;9.07;1.48;;;;;;;;;;4958650;28;20122;-70
2023/04/04 05:55:52;;;;;;;6.05;1.33;;;;;;;;;;4954347;28;20088;-71
2023/04/04 05:58:20;;;;;;;9.30;1.73;;;;;;;;;;4941674;28;20026;-72
2023/04/04 06:00:47;;;;;;;7.32;1.60;;;;;;;;;;4959934;28;20291;-73
2023/04/04 06:03:15;;;;;;;6.57;1.38;;;;;;;;;;4957831;28;20062;-71
2023/04/04 06:05:45;;;;;;;6.60;1.30;;;;;;;;;;4964605;28;20026;-71
2023/04/04 06:08:13;;;;;;;8.63;1.90;;;;;;;;;;4957990;28;20493;-71
2023/04/04 06:10:40;;;;;;;8.68;1.98;;;;;;;;;;4944325;28;20057;-72
2023/04/04 06:13:09;;;;;;;11.00;2.58;;;;;;;;;;4938970;28;20033;-73
2023/04/04 06:15:37;;;;;;;7.47;2.17;;;;;;;;;;4960719;28;20034;-72
2023/04/04 06:18:04;;;;;;;7.13;2.00;;;;;;;;;;4960347;28;20030;-71
2023/04/04 06:20:32;;;;;;;14.07;2.97;;;;;;;;;;4962978;28;20062;-71
2023/04/04 06:23:03;;;;;;;10.70;2.75;;;;;;;;;;4957963;28;20034;-71
2023/04/04 06:25:31;;;;;;;8.45;2.17;;;;;;;;;;4942273;28;20834;-71
2023/04/04 06:27:58;;;;;;;8.63;1.98;;;;;;;;;;4958201;28;20038;-72
2023/04/04 06:30:24;;;;;;;9.32;2.00;;;;;;;;;;4945329;28;20041;-72
2023/04/04 06:32:52;;;;;;;;;;;;;;;;;;4955744;28;20031;-70
2023/04/04 06:35:19;;;;;;;7.38;1.95;;;;;;;;;;4956514;28;19921;-72
2023/04/04 06:37:47;;;;;;;9.90;3.53;;;;;;;;;;4943411;28;20852;-71
2023/04/04 06:40:14;;;;;;;8.60;2.40;;;;;;;;;;4959524;28;20077;-72
2023/04/04 06:42:57;;;;;;;13.07;3.13;;;;;;;;;;4962107;28;20042;-71
2023/04/04 06:45:25;;;;;;;10.57;2.72;;;;;;;;;;4961081;28;20553;-71
2023/04/04 06:47:53;;;;;;;10.20;3.03;;;;;;;;;;4956955;28;20034;-72
2023/04/04 06:50:21;;;;;;;11.05;2.90;;;;;;;;;;4961195;28;20110;-71
2023/04/04 06:52:49;;;;;;;14.98;3.40;;;;;;;;;;4954754;28;20034;-71
2023/04/04 06:55:17;;;;;;;12.50;3.80;;;;;;;;;;4952886;28;20031;-71
2023/04/04 06:57:45;;;;;;;10.32;2.83;;;;;;;;;;4959149;28;20120;-71
2023/04/04 07:00:12;;;;;;;9.85;3.08;;;;;;;;;;4949953;28;20134;-71
2023/04/04 07:02:41;;;;;;;13.25;3.75;;;;;;;;;;4958748;28;20836;-71
2023/04/04 07:05:09;;;;;;;12.60;3.90;;;;;;;;;;4955425;28;20030;-71
2023/04/04 07:07:37;;;;;;;13.48;4.10;;;;;;;;;;4958999;28;20046;-71
2023/04/04 07:10:05;;;;;;;11.80;3.42;;;;;;;;;;4958178;28;20138;-71
2023/04/04 07:12:33;;;;;;;14.63;3.53;;;;;;;;;;4960063;28;20058;-71
2023/04/04 07:15:00;;;;;;;8.65;3.10;;;;;;;;;;4956207;28;20366;-71
2023/04/04 07:17:28;;;;;;;10.65;3.35;;;;;;;;;;4964071;28;20022;-73
2023/04/04 07:19:55;;;;;;;9.88;3.25;;;;;;;;;;4958416;28;20434;-73
2023/04/04 07:22:21;;;;;;;8.57;2.90;;;;;;;;;;4957600;28;20037;-71
2023/04/04 07:24:49;;;;;;;10.10;2.53;;;;;;;;;;4955586;28;20034;-71
2023/04/04 07:27:16;;;;;;;8.55;2.05;;;;;;;;;;4961666;28;20924;-71
2023/04/04 07:29:43;;;;;;;10.25;2.25;;;;;;;;;;4957740;28;20472;-71
2023/04/04 07:32:11;;;;;;;9.07;2.20;;;;;;;;;;4943622;28;20777;-73
2023/04/04 07:34:38;;;;;;;11.10;2.00;;;;;;;;;;4946745;28;20101;-73
2023/04/04 07:37:06;;;;;;;8.25;1.58;;;;;;;;;;4957521;28;20055;-73
2023/04/04 07:39:33;;;;;;;8.63;1.70;;;;;;;;;;4958383;28;20034;-72
2023/04/04 07:42:00;;;;;;;11.70;1.48;;;;;;;;;;4956740;28;20018;-72
2023/04/04 07:44:27;;;;;;;9.82;1.33;;;;;;;;;;4929977;28;20112;-72
2023/04/04 07:46:55;;;;;;;7.82;1.58;;;;;;;;;;4958365;28;20875;-71
2023/04/04 07:49:23;;;;;;;9.93;1.70;;;;;;;;;;4954166;28;20195;-71
2023/04/04 07:51:50;;;;;;;12.38;1.83;;;;;;;;;;4934854;28;20288;-71
2023/04/04 07:54:17;;;;;;;9.88;1.77;;;;;;;;;;4955799;28;21325;-71
2023/04/04 07:56:45;;;;;;;8.80;2.17;;;;;;;;;;4944443;28;20030;-72
2023/04/04 07:59:12;;;;;;;10.10;2.30;;;;;;;;;;4959889;28;20038;-72
2023/04/04 08:01:40;;;;;;;7.65;1.50;;;;;;;;;;4960013;28;20118;-72
2023/04/04 08:04:08;;;;;;;9.60;2.13;;;;;;;;;;4952100;28;20042;-72
2023/04/04 08:06:36;;;;;;;10.82;2.10;;;;;;;;;;4958422;28;20082;-72
2023/04/04 08:09:03;;;;;;;6.97;1.70;;;;;;;;;;4954214;28;23012;-72
2023/04/04 08:11:30;;;;;;;8.88;1.95;;;;;;;;;;4929563;28;20034;-72
2023/04/04 08:13:57;;;;;;;;;;;;;;;;;;4953328;28;20531;-72
2023/04/04 08:16:24;;;;;;;10.77;1.90;;;;;;;;;;4956869;28;19914;-72
2023/04/04 08:18:52;;;;;;;12.02;2.20;;;;;;;;;;4953706;28;20753;-72
2023/04/04 08:21:19;;;;;;;12.80;2.30;;;;;;;;;;4955023;28;20455;-72
2023/04/04 08:23:46;;;;;;;15.43;5.13;;;;;;;;;;4956036;28;20448;-72
2023/04/04 08:26:12;;;;;;;14.25;4.30;;;;;;;;;;4959479;28;20030;-72
2023/04/04 08:28:38;;;;;;;10.90;2.90;;;;;;;;;;4956900;28;20054;-72
2023/04/04 08:31:07;;;;;;;12.27;2.28;;;;;;;;;;4954271;28;20054;-71
2023/04/04 08:33:34;;;;;;;10.95;1.95;;;;;;;;;;4941174;28;20563;-71
2023/04/04 08:36:02;;;;;;;9.00;1.80;;;;;;;;;;4953233;28;20065;-71
2023/04/04 08:38:30;;;;;;;10.32;2.20;;;;;;;;;;4959316;28;20027;-71
2023/04/04 08:40:57;;;;;;;8.50;2.10;;;;;;;;;;4956297;28;20157;-72
2023/04/04 08:43:25;;;;;;;9.93;1.92;;;;;;;;;;4939932;28;20587;-71
2023/04/04 08:45:53;;;;;;;6.78;1.40;;;;;;;;;;4953849;28;20519;-71
2023/04/04 08:48:23;;;;;;;10.85;2.00;;;;;;;;;;4962297;28;20121;-71
2023/04/04 08:50:52;;;;;;;10.55;1.95;;;;;;;;;;4954913;28;20047;-71
2023/04/04 08:53:20;;;;;;;9.18;1.83;;;;;;;;;;4956719;28;20212;-71
2023/04/04 08:55:47;;;;;;;8.13;1.65;;;;;;;;;;4954687;28;20762;-72
2023/04/04 08:58:16;;;;;;;8.40;2.10;;;;;;;;;;4962673;28;20028;-71
2023/04/04 09:00:43;;;;;;;11.57;1.70;;;;;;;;;;4939334;28;20043;-72
2023/04/04 09:03:14;;;;;;;12.05;2.40;;;;;;;;;;4957911;28;20029;-73
2023/04/04 09:05:43;;;;;;;8.77;1.73;;;;;;;;;;4958341;28;20157;-72
2023/04/04 09:08:11;;;;;;;5.82;1.40;;;;;;;;;;4944025;28;20503;-72
2023/04/04 09:10:42;;;;;;;10.07;1.85;;;;;;;;;;4945566;28;20046;-72
2023/04/04 09:13:11;;;;;;;10.50;1.75;;;;;;;;;;4958524;28;20552;-72
2023/04/04 09:15:38;;;;;;;7.18;1.40;;;;;;;;;;4958402;28;20030;-72
2023/04/04 09:18:05;;;;;;;6.80;1.52;;;;;;;;;;4953392;28;20411;-72
2023/04/04 09:20:44;;;;;;;6.80;1.42;;;;;;;;;;4954280;28;20035;-72
2023/04/04 09:23:22;;;;;;;9.73;1.38;;;;;;;;;;4954385;28;20046;-72
2023/04/04 09:25:52;;;;;;;6.53;1.58;;;;;;;;;;4955817;28;20030;-72
2023/04/04 09:28:21;;;;;;;7.70;1.50;;;;;;;;;;4938044;28;20594;-72
2023/04/04 09:30:52;;;;;;;8.13;1.50;;;;;;;;;;4938875;28;20074;-72
2023/04/04 09:33:20;;;;;;;6.07;1.40;;;;;;;;;;4957739;28;20034;-72
2023/04/04 09:35:54;;;;;;;7.15;1.48;;;;;;;;;;4955205;28;20026;-71
2023/04/04 09:38:23;;;;;;;7.88;1.38;;;;;;;;;;4957699;28;20038;-73
2023/04/04 09:40:51;;;;;;;7.07;1.63;;;;;;;;;;4953400;28;20062;-73
2023/04/04 09:43:20;;;;;;;9.63;1.90;;;;;;;;;;4958839;28;20071;-72
2023/04/04 09:45:49;;;;;;;8.25;1.60;;;;;;;;;;4958026;28;20033;-73
2023/04/04 09:48:36;;;;;;;6.43;1.48;;;;;;;;;;4956258;28;20023;-73
2023/04/04 09:51:07;;;;;;;5.82;1.33;;;;;;;;;;4952006;28;21903;-73
2023/04/04 09:53:38;;;;;;;9.50;1.98;;;;;;;;;;4946249;28;20030;-73
2023/04/04 09:56:06;;;;;;;10.10;2.13;;;;;;;;;;4957032;28;20054;-72
2023/04/04 09:58:36;;;;;;;7.63;1.40;;;;;;;;;;4951684;28;20054;-72
2023/04/04 10:01:08;;;;;;;6.03;1.25;;;;;;;;;;4953655;28;20826;-72
2023/04/04 10:03:38;;;;;;;6.00;1.35;;;;;;;;;;4959227;28;20061;-72
2023/04/04 10:06:06;;;;;;;7.00;1.25;;;;;;;;;;4940247;28;20030;-72
2023/04/04 10:08:34;;;;;;;8.23;1.60;;;;;;;;;;4937677;28;20711;-72
2023/04/04 10:11:05;;;;;;;6.72;1.65;;;;;;;;;;4952552;28;20045;-71
2023/04/04 10:13:39;;;;;;;7.72;1.60;;;;;;;;;;4957788;28;20073;-72
2023/04/04 10:16:07;;;;;;;7.65;1.77;;;;;;;;;;4935495;28;20332;-72
2023/04/04 10:18:35;;;;;;;7.65;1.40;;;;;;;;;;4958057;28;20037;-72
2023/04/04 10:21:03;;;;;;;9.98;2.30;;;;;;;;;;4937874;28;20042;-72
2023/04/04 10:23:32;;;;;;;9.07;1.90;;;;;;;;;;4957657;28;20035;-72
2023/04/04 10:26:00;;;;;;;6.22;1.70;;;;;;;;;;4953590;28;20421;-73
2023/04/04 10:28:27;;;;;;;6.43;1.75;;;;;;;;;;4955649;28;20034;-71
2023/04/04 10:31:14;;;;;;;8.32;2.13;;;;;;;;;;4951925;28;20054;-71
2023/04/04 10:33:58;;;;;;;7.28;1.80;;;;;;;;;;4959254;28;20358;-71
2023/04/04 10:36:30;;;;;;;9.35;2.17;;;;;;;;;;4958378;28;20421;-72
2023/04/04 10:39:01;;;;;;;6.68;1.60;;;;;;;;;;4950343;28;20050;-72
2023/04/04 10:41:31;;;;;;;6.90;1.45;;;;;;;;;;4960036;28;20532;-72
2023/04/04 10:44:00;;;;;;;10.63;1.77;;;;;;;;;;4959059;28;20030;-71
2023/04/04 10:46:29;;;;;;;8.45;1.58;;;;;;;;;;4958995;28;20030;-72
2023/04/04 10:49:01;;;;;;;8.13;1.58;;;;;;;;;;4954202;28;20355;-74
2023/04/04 10:51:30;;;;;;;8.43;1.70;;;;;;;;;;4960266;28;20068;-71
2023/04/04 10:53:58;;;;;;;10.45;2.00;;;;;;;;;;4956249;28;20149;-72
2023/04/04 10:56:26;;;;;;;7.50;1.90;;;;;;;;;;4962770;28;20189;-72
2023/04/04 10:59:09;;;;;;;10.38;2.08;;;;;;;;;;4954061;28;20058;-72
2023/04/04 11:01:55;;;;;;;7.97;1.58;;;;;;;;;;4960422;28;20030;-73
2023/04/04 11:04:32;;;;;;;8.57;2.08;;;;;;;;;;4960084;28;20042;-72
2023/04/04 11:07:17;;;;;;;9.00;1.98;;;;;;;;;;4956905;28;20125;-75
2023/04/04 11:09:56;;;;;;;11.75;2.10;;;;;;;;;;4951015;28;20509;-71
2023/04/04 11:12:37;;;;;;;11.10;2.03;;;;;;;;;;4962592;28;20031;-72
2023/04/04 11:15:13;;;;;;;8.95;2.00;;;;;;;;;;4958729;28;20595;-71
2023/04/04 11:17:41;;;;;;;;;;;;;;;;;;4958018;28;20346;-72
2023/04/04 11:20:09;;;;;;;10.77;2.47;;;;;;;;;;4956073;28;19960;-72
2023/04/04 11:22:37;;;;;;;11.65;2.13;;;;;;;;;;4961526;28;20037;-70
2023/04/04 11:25:23;;;;;;;12.13;2.45;;;;;;;;;;4934027;28;20693;-71
2023/04/04 11:27:55;;;;;;;12.05;2.45;;;;;;;;;;4954485;28;20053;-71
2023/04/04 11:30:22;;;;;;;10.50;1.80;;;;;;;;;;4955516;28;20027;-70
2023/04/04 11:32:50;;;;;;;9.07;1.83;;;;;;;;;;4953738;28;20043;-70
2023/04/04 11:35:18;;;;;;;8.38;2.05;;;;;;;;;;4937913;28;20046;-72
2023/04/04 11:37:53;;;;;;;8.48;1.83;;;;;;;;;;4950321;28;20034;-72
2023/04/04 11:40:43;;;;;;;6.80;1.50;;;;;;;;;;4955894;28;20054;-71
2023/04/04 11:43:11;;;;;;;10.52;1.90;;;;;;;;;;4941947;28;20031;-70
2023/04/04 11:45:48;;;;;;;8.98;1.88;;;;;;;;;;4940424;28;20054;-70
2023/04/04 11:48:16;;;;;;;;;;;;;;;;;;4953413;28;20338;-71
2023/04/04 11:50:48;;;;;;;9.85;3.08;;;;;;;;;;4953656;28;19919;-72
2023/04/04 11:53:16;;;;;;;10.65;2.60;;;;;;;;;;4953879;28;20030;-71
2023/04/04 11:55:48;;;;;;;8.02;2.28;;;;;;;;;;4950478;28;20389;-71
2023/04/04 11:58:18;;;;;;;6.90;1.58;;;;;;;;;;4940479;28;20544;-72
2023/04/04 12:00:46;;;;;;;9.30;2.95;;;;;;;;;;4950052;28;20034;-70
2023/04/04 12:03:17;;;;;;;6.93;1.77;;;;;;;;;;4950145;28;20105;-70
2023/04/04 12:05:46;;;;;;;8.65;2.15;;;;;;;;;;4952604;28;20027;-72
2023/04/04 12:08:14;;;;;;;9.95;2.13;;;;;;;;;;4952667;28;21120;-72
2023/04/04 12:10:43;;;;;;;8.93;2.10;;;;;;;;;;4954501;28;20134;-72
2023/04/04 12:13:11;;;;;;;10.73;2.25;;;;;;;;;;4954334;28;20824;-72
2023/04/04 12:15:39;;;;;;;11.75;2.38;;;;;;;;;;4924828;28;20091;-71
2023/04/04 12:18:10;;;;;;;10.75;2.40;;;;;;;;;;4950949;28;20587;-72
2023/04/04 12:20:41;;;;;;;11.45;2.38;;;;;;;;;;4953157;28;20074;-72
2023/04/04 12:23:09;;;;;;;7.80;1.80;;;;;;;;;;4951248;28;20089;-71
2023/04/04 12:25:38;;;;;;;12.75;2.20;;;;;;;;;;4950673;28;20027;-72
2023/04/04 12:28:06;;;;;;;11.23;2.70;;;;;;;;;;4949454;28;20046;-73
2023/04/04 12:30:34;;;;;;;10.32;2.80;;;;;;;;;;4935136;28;20751;-71
2023/04/04 12:33:01;;;;;;;12.18;2.65;;;;;;;;;;4934832;28;20045;-71
2023/04/04 12:35:30;;;;;;;13.75;3.08;;;;;;;;;;4951487;28;20031;-71
2023/04/04 12:38:07;;;;;;;10.80;2.50;;;;;;;;;;4949651;28;20023;-71
2023/04/04 12:40:39;;;;;;;11.68;3.35;;;;;;;;;;4940261;28;20041;-71
2023/04/04 12:43:17;;;;;;;10.38;2.25;;;;;;;;;;4949271;28;20042;-70
2023/04/04 12:45:49;;;;;;;10.85;2.35;;;;;;;;;;4937378;28;20161;-71
2023/04/04 12:48:21;;;;;;;11.07;2.28;;;;;;;;;;4937351;28;20370;-72
2023/04/04 12:51:00;;;;;;;11.18;2.67;;;;;;;;;;4951411;28;20153;-74
2023/04/04 12:53:29;;;;;;;8.00;2.10;;;;;;;;;;4941587;28;20039;-72
2023/04/04 12:56:01;;;;;;;9.60;2.20;;;;;;;;;;4951700;28;20110;-72
2023/04/04 12:58:31;;;;;;;8.60;2.00;;;;;;;;;;4954110;28;20190;-72
2023/04/04 13:01:04;;;;;;;10.93;2.80;;;;;;;;;;4950861;28;20133;-70
2023/04/04 13:03:36;;;;;;;7.55;1.95;;;;;;;;;;4940130;28;20113;-71
2023/04/04 13:06:18;;;;;;;9.15;2.17;;;;;;;;;;4938738;28;20077;-71
2023/04/04 13:08:56;;;;;;;9.80;2.20;;;;;;;;;;4956420;28;20686;-71
2023/04/04 13:11:26;;;;;;;8.15;1.95;;;;;;;;;;4936791;28;20031;-71
2023/04/04 13:14:03;;;;;;;9.05;1.83;;;;;;;;;;4948633;28;20030;-71
2023/04/04 13:16:38;;;;;;;7.68;1.65;;;;;;;;;;4957151;28;20030;-71
2023/04/04 13:19:06;;;;;;;9.02;1.88;;;;;;;;;;4954879;28;20073;-71
2023/04/04 13:21:36;;;;;;;8.50;1.80;;;;;;;;;;4942879;28;20034;-73
2023/04/04 13:24:03;;;;;;;8.20;1.77;;;;;;;;;;4948919;28;20575;-73
2023/04/04 13:26:30;;;;;;;9.48;1.90;;;;;;;;;;4951950;28;20035;-72
2023/04/04 13:28:58;;;;;;;7.68;1.90;;;;;;;;;;4949133;28;20201;-70
2023/04/04 13:31:27;;;;;;;8.75;1.70;;;;;;;;;;4954866;28;20130;-72
2023/04/04 13:33:55;;;;;;;9.45;1.92;;;;;;;;;;4948613;28;20035;-72
2023/04/04 13:36:23;;;;;;;9.43;1.80;;;;;;;;;;4934799;28;20448;-71
2023/04/04 13:38:52;;;;;;;7.85;1.90;;;;;;;;;;4951335;28;20437;-72
2023/04/04 13:41:21;;;;;;;10.82;2.40;;;;;;;;;;4955810;28;20109;-72
2023/04/04 13:43:50;;;;;;;7.32;1.70;;;;;;;;;;4934370;28;20050;-71
2023/04/04 13:46:18;;;;;;;11.77;2.00;;;;;;;;;;4954695;28;20169;-70
2023/04/04 13:48:46;;;;;;;8.27;1.80;;;;;;;;;;4952902;28;20499;-73
2023/04/04 13:51:15;;;;;;;8.25;1.80;;;;;;;;;;4950736;28;20034;-72
2023/04/04 13:53:46;;;;;;;8.20;1.95;;;;;;;;;;4938695;28;20484;-71
2023/04/04 13:56:15;;;;;;;8.55;1.98;;;;;;;;;;4950934;28;20034;-71
2023/04/04 13:58:42;;;;;;;9.43;2.00;;;;;;;;;;4952997;28;20030;-72
2023/04/04 14:01:10;;;;;;;8.48;1.98;;;;;;;;;;4952714;28;20043;-72
2023/04/04 14:03:39;;;;;;;8.95;1.70;;;;;;;;;;4952549;28;20486;-72
2023/04/04 14:06:07;;;;;;;7.47;1.80;;;;;;;;;;4946314;28;20512;-71
2023/04/04 14:08:35;;;;;;;9.13;1.83;;;;;;;;;;4954656;28;20066;-71
2023/04/04 14:11:03;;;;;;;8.15;1.70;;;;;;;;;;4950397;28;20511;-72
2023/04/04 14:13:31;;;;;;;6.07;1.60;;;;;;;;;;4951898;28;20026;-71
2023/04/04 14:15:59;;;;;;;7.10;1.98;;;;;;;;;;4951463;28;20203;-71
2023/04/04 14:18:26;;;;;;;8.23;1.70;;;;;;;;;;4958845;28;20035;-71
2023/04/04 14:20:56;;;;;;;13.00;2.38;;;;;;;;;;4953970;28;20285;-71
2023/04/04 14:23:22;;;;;;;9.02;2.58;;;;;;;;;;4925894;28;20038;-72
2023/04/04 14:25:49;;;;;;;10.18;3.78;;;;;;;;;;4959944;28;20088;-72
2023/04/04 14:28:17;;;;;;;9.90;3.80;;;;;;;;;;4958595;28;20030;-70
2023/04/04 14:30:44;;;;;;;8.60;2.30;;;;;;;;;;4953010;28;20146;-71
2023/04/04 14:33:11;;;;;;;8.27;2.50;;;;;;;;;;4960793;28;20039;-71
2023/04/04 14:35:38;;;;;;;9.20;2.83;;;;;;;;;;4943220;28;20030;-71
2023/04/04 14:38:07;;;;;;;9.05;2.60;;;;;;;;;;4965989;28;20023;-72
2023/04/04 14:40:34;;;;;;;9.25;2.60;;;;;;;;;;4965238;28;20073;-68
2023/04/04 14:43:02;;;;;;;10.13;2.70;;;;;;;;;;4941863;28;20031;-70
2023/04/04 14:45:31;;;;;;;7.95;2.38;;;;;;;;;;4964477;28;20030;-71
2023/04/04 14:48:00;;;;;;;7.93;1.85;;;;;;;;;;4959726;28;20038;-72
2023/04/04 14:50:27;;;;;;;10.20;2.33;;;;;;;;;;4924087;28;20053;-71
2023/04/04 14:52:55;;;;;;;8.95;2.10;;;;;;;;;;4917310;28;20364;-71